Time;durP1;ratioP1;P1;durP2;ratioP2;P2;SDS_P1;SDS_P2;PMS_P1;PMS_P2;Temp;Humidity;BMP_temperature;BMP_pressure;BME280_temperature;BME280_humidity;BME280_pressure;Samples;Min_cycle;Max_cycle;Signal;HPM_P1;HPM_P2
2021/05/05 00:00:18;;;;;;;8.38;4.00;;;384.30;1971.20;;;;;;5072663;28;20073;-69
2021/05/05 00:02:45;;;;;;;8.48;4.35;;;384.20;1971.20;;;;;;5090154;28;20024;-70
2021/05/05 00:05:12;;;;;;;6.45;4.45;;;384.30;1945.60;;;;;;5090305;28;20401;-70
2021/05/05 00:07:38;;;;;;;7.57;4.40;;;384.30;1920.00;;;;;;5090254;28;20453;-71
2021/05/05 00:10:05;;;;;;;7.60;4.05;;;384.30;1920.00;;;;;;5089838;28;20111;-70
2021/05/05 00:12:31;;;;;;;9.63;4.65;;;384.30;1920.00;;;;;;5093939;28;20081;-68
2021/05/05 00:14:57;;;;;;;7.53;4.40;;;384.20;1894.40;;;;;;5093830;28;20032;-70
2021/05/05 00:17:23;;;;;;;9.85;4.68;;;384.30;1894.40;;;;;;5093685;28;20066;-68
2021/05/05 00:19:50;;;;;;;8.50;4.65;;;384.30;1920.00;;;;;;5093717;28;20052;-69
2021/05/05 00:22:17;;;;;;;10.48;4.90;;;384.40;1920.00;;;;;;5076027;28;20509;-70
2021/05/05 00:24:43;;;;;;;10.85;5.55;;;384.30;1920.00;;;;;;5093654;28;20028;-70
2021/05/05 00:27:08;;;;;;;7.15;4.40;;;384.30;1920.00;;;;;;5093688;28;20123;-69
2021/05/05 00:29:34;;;;;;;9.50;4.60;;;384.30;1920.00;;;;;;5093196;28;20024;-70
2021/05/05 00:32:00;;;;;;;7.68;4.55;;;384.30;1920.00;;;;;;5093713;28;20024;-70
2021/05/05 00:34:26;;;;;;;8.10;5.10;;;384.30;1945.60;;;;;;5093550;28;20028;-70
2021/05/05 00:36:52;;;;;;;8.80;5.13;;;384.30;1945.60;;;;;;5093661;28;20073;-71
2021/05/05 00:39:17;;;;;;;7.75;4.78;;;384.30;1971.20;;;;;;5093154;28;20442;-70
2021/05/05 00:41:44;;;;;;;6.60;4.70;;;384.10;1996.80;;;;;;5093319;28;20051;-70
2021/05/05 00:44:10;;;;;;;8.75;4.88;;;384.10;1996.80;;;;;;5093449;28;20118;-71
2021/05/05 00:46:37;;;;;;;8.32;4.63;;;384.10;1996.80;;;;;;5093205;28;20099;-76
2021/05/05 00:49:03;;;;;;;8.38;4.20;;;384.10;1996.80;;;;;;5093002;28;20497;-76
2021/05/05 00:51:29;;;;;;;9.25;4.18;;;384.10;1971.20;;;;;;5093270;28;20078;-73
2021/05/05 00:53:54;;;;;;;6.47;4.20;;;384.10;1971.20;;;;;;5093082;28;20028;-69
2021/05/05 00:56:20;;;;;;;8.30;4.45;;;384.10;1971.20;;;;;;5093278;28;20024;-70
2021/05/05 00:58:46;;;;;;;8.10;4.10;;;384.10;1945.60;;;;;;5092696;28;20020;-71
2021/05/05 01:01:11;;;;;;;7.72;4.38;;;384.10;1945.60;;;;;;5092900;28;20476;-71
2021/05/05 01:03:37;;;;;;;8.70;4.97;;;384.20;1945.60;;;;;;5092784;28;20107;-70
2021/05/05 01:06:03;;;;;;;11.88;5.75;;;384.10;1945.60;;;;;;5092849;28;20019;-69
2021/05/05 01:08:31;;;;;;;8.45;4.10;;;384.10;1971.20;;;;;;5092671;28;20535;-70
2021/05/05 01:10:57;;;;;;;5.80;3.65;;;384.10;1945.60;;;;;;5092559;28;20024;-71
2021/05/05 01:13:23;;;;;;;6.15;3.47;;;384.10;1945.60;;;;;;5092672;28;20032;-68
2021/05/05 01:15:49;;;;;;;5.55;3.42;;;384.10;1894.40;;;;;;5092608;28;20386;-70
2021/05/05 01:18:14;;;;;;;7.93;3.75;;;384.20;1894.40;;;;;;5092579;28;20040;-69
2021/05/05 01:20:40;;;;;;;5.70;3.30;;;384.30;1894.40;;;;;;5092171;28;20020;-71
2021/05/05 01:23:06;;;;;;;5.05;3.17;;;384.30;1868.80;;;;;;5092807;28;20059;-70
2021/05/05 01:25:33;;;;;;;7.68;3.35;;;384.30;1843.20;;;;;;5092322;28;20023;-69
2021/05/05 01:27:59;;;;;;;6.15;3.30;;;384.30;1868.80;;;;;;5092628;28;20077;-68
2021/05/05 01:30:26;;;;;;;6.90;3.72;;;384.40;1843.20;;;;;;5091949;28;20091;-69
2021/05/05 01:32:52;;;;;;;7.65;3.83;;;384.40;1843.20;;;;;;5092346;28;20031;-70
2021/05/05 01:35:20;;;;;;;5.63;3.58;;;384.40;1843.20;;;;;;5092557;28;20024;-69
2021/05/05 01:37:48;;;;;;;6.03;3.30;;;384.40;1868.80;;;;;;5092386;28;20012;-68
2021/05/05 01:40:34;;;;;;;7.20;3.50;;;384.40;1868.80;;;;;;5091967;28;20525;-69
2021/05/05 01:43:03;;;;;;;7.07;4.05;;;384.40;1868.80;;;;;;5092070;28;20474;-69
2021/05/05 01:45:29;;;;;;;9.18;5.15;;;384.30;1868.80;;;;;;5092095;28;20095;-69
2021/05/05 01:48:01;;;;;;;6.63;3.50;;;384.40;1843.20;;;;;;5091998;28;20024;-69
2021/05/05 01:50:26;;;;;;;4.50;2.90;;;384.40;1868.80;;;;;;5091850;28;20054;-70
2021/05/05 01:52:53;;;;;;;4.85;3.38;;;384.40;1894.40;;;;;;5073906;28;20024;-69
2021/05/05 01:55:19;;;;;;;5.50;3.28;;;384.30;1920.00;;;;;;5091925;28;20042;-71
2021/05/05 01:57:46;;;;;;;5.53;3.42;;;384.30;1945.60;;;;;;5091690;28;20020;-70
2021/05/05 02:00:18;;;;;;;5.90;3.45;;;384.20;1996.80;;;;;;5091680;28;20024;-70
2021/05/05 02:02:44;;;;;;;6.53;4.55;;;384.20;1996.80;;;;;;5092002;28;20107;-69
2021/05/05 02:05:11;;;;;;;7.85;5.00;;;384.10;2022.40;;;;;;5091704;28;20095;-70
2021/05/05 02:07:37;;;;;;;8.50;5.00;;;384.10;2048.00;;;;;;5091602;28;20034;-69
2021/05/05 02:10:06;;;;;;;7.30;4.95;;;384.00;2073.60;;;;;;5091613;28;20012;-69
2021/05/05 02:12:32;;;;;;;8.18;5.68;;;384.00;2073.60;;;;;;5091378;28;20051;-69
2021/05/05 02:14:58;;;;;;;13.13;6.00;;;384.00;2099.20;;;;;;5091692;28;20389;-69
2021/05/05 02:17:24;;;;;;;11.43;7.28;;;359.30;2124.80;;;;;;5091318;28;20050;-69
2021/05/05 02:19:50;;;;;;;12.52;6.95;;;359.20;2150.40;;;;;;5091313;28;20032;-70
2021/05/05 02:22:15;;;;;;;9.20;6.10;;;359.10;2176.00;;;;;;5091167;28;20035;-69
2021/05/05 02:24:41;;;;;;;10.02;6.20;;;359.00;2176.00;;;;;;5091367;28;20505;-69
2021/05/05 02:27:07;;;;;;;8.23;5.80;;;358.90;2227.20;;;;;;5091634;28;20475;-70
2021/05/05 02:29:33;;;;;;;12.13;6.30;;;358.90;2227.20;;;;;;5091086;28;20355;-71
2021/05/05 02:32:01;;;;;;;11.13;6.30;;;358.80;2278.40;;;;;;5073252;28;20024;-68
2021/05/05 02:34:27;;;;;;;9.45;6.18;;;358.80;2278.40;;;;;;5090832;28;20498;-68
2021/05/05 02:36:52;;;;;;;11.77;7.20;;;358.80;2252.80;;;;;;5091119;28;20056;-69
2021/05/05 02:39:20;;;;;;;10.02;6.93;;;358.80;2304.00;;;;;;5090960;28;20104;-70
2021/05/05 02:41:46;;;;;;;12.45;6.78;;;358.80;2304.00;;;;;;5091260;28;20024;-68
2021/05/05 02:44:12;;;;;;;11.85;6.80;;;358.60;2329.60;;;;;;5091334;28;20027;-70
2021/05/05 02:46:38;;;;;;;10.55;6.65;;;358.50;2329.60;;;;;;5089382;28;20020;-69
2021/05/05 02:49:06;;;;;;;11.20;6.38;;;358.50;2329.60;;;;;;5090922;28;20084;-69
2021/05/05 02:51:32;;;;;;;16.50;9.40;;;358.50;2329.60;;;;;;5090815;28;20077;-69
2021/05/05 02:53:58;;;;;;;14.63;8.27;;;333.70;2329.60;;;;;;5091182;28;20020;-68
2021/05/05 02:56:24;;;;;;;13.60;8.18;;;333.70;2329.60;;;;;;5090771;28;20024;-68
2021/05/05 02:58:49;;;;;;;12.90;7.50;;;333.70;2329.60;;;;;;5090696;28;20116;-70
2021/05/05 03:01:15;;;;;;;32.15;14.88;;;333.60;2329.60;;;;;;5072626;28;20028;-67
2021/05/05 03:03:41;;;;;;;53.65;23.25;;;333.50;2329.60;;;;;;5090660;28;20032;-70
2021/05/05 03:06:07;;;;;;;30.65;14.52;;;333.40;2329.60;;;;;;5091041;28;20031;-72
2021/05/05 03:08:33;;;;;;;26.13;13.45;;;333.50;2329.60;;;;;;5090414;28;20020;-72
2021/05/05 03:11:00;;;;;;;40.35;17.00;;;333.40;2329.60;;;;;;5090762;28;20039;-68
2021/05/05 03:13:26;;;;;;;14.75;8.70;;;333.40;2329.60;;;;;;5090544;28;20474;-70
2021/05/05 03:15:52;;;;;;;17.52;9.35;;;333.30;2329.60;;;;;;5091054;28;20116;-69
2021/05/05 03:18:17;;;;;;;19.88;10.15;;;333.20;2329.60;;;;;;5090475;28;20043;-70
2021/05/05 03:20:43;;;;;;;19.08;10.20;;;333.10;2329.60;;;;;;5090296;28;20478;-70
2021/05/05 03:23:09;;;;;;;21.92;10.80;;;333.10;2329.60;;;;;;5090814;28;20036;-70
2021/05/05 03:25:34;;;;;;;16.02;9.00;;;333.20;2329.60;;;;;;5090521;28;20093;-69
2021/05/05 03:28:00;;;;;;;15.75;9.10;;;333.10;2329.60;;;;;;5090948;28;20020;-69
2021/05/05 03:30:26;;;;;;;13.15;8.45;;;333.00;2329.60;;;;;;5090112;28;20024;-71
2021/05/05 03:32:52;;;;;;;16.38;8.50;;;332.80;2329.60;;;;;;5090931;28;20020;-70
2021/05/05 03:35:17;;;;;;;14.88;8.18;;;332.80;2329.60;;;;;;5090804;28;20441;-71
2021/05/05 03:37:43;;;;;;;11.95;7.80;;;332.90;2329.60;;;;;;5090515;28;20051;-71
2021/05/05 03:40:10;;;;;;;12.80;7.50;;;332.90;2329.60;;;;;;5090299;28;20027;-70
2021/05/05 03:42:36;;;;;;;15.07;7.47;;;333.00;2329.60;;;;;;5090182;28;20032;-70
2021/05/05 03:45:04;;;;;;;12.70;7.80;;;333.00;2329.60;;;;;;5090600;28;20040;-70
2021/05/05 03:47:30;;;;;;;11.75;7.47;;;333.00;2329.60;;;;;;5094444;28;20466;-69
2021/05/05 03:49:56;;;;;;;17.75;8.18;;;332.90;2329.60;;;;;;5094209;28;20111;-69
2021/05/05 03:52:22;;;;;;;18.95;7.55;;;332.90;2329.60;;;;;;5094097;28;20089;-74
2021/05/05 03:54:48;;;;;;;25.30;8.70;;;333.00;2329.60;;;;;;5094297;28;20039;-73
2021/05/05 03:57:13;;;;;;;26.83;8.80;;;333.20;2329.60;;;;;;5094432;28;20590;-74
2021/05/05 03:59:39;;;;;;;25.70;9.00;;;333.30;2329.60;;;;;;5094049;28;20035;-71
2021/05/05 04:02:05;;;;;;;26.42;9.07;;;333.30;2329.60;;;;;;5094288;28;20393;-70
2021/05/05 04:04:30;;;;;;;26.90;9.43;;;333.40;2329.60;;;;;;5093883;28;20493;-71
2021/05/05 04:06:56;;;;;;;28.10;8.60;;;333.50;2329.60;;;;;;5094089;28;20107;-69
2021/05/05 04:09:23;;;;;;;26.73;11.10;;;333.70;2329.60;;;;;;5093902;28;20442;-69
2021/05/05 04:11:49;;;;;;;32.88;11.27;;;333.70;2329.60;;;;;;5094260;28;20008;-70
2021/05/05 04:14:14;;;;;;;52.40;17.55;;;358.40;2329.60;;;;;;5093895;28;20028;-68
2021/05/05 04:16:40;;;;;;;64.03;19.50;;;358.50;2329.60;;;;;;5093736;28;20036;-71
2021/05/05 04:19:06;;;;;;;59.65;18.70;;;358.60;2329.60;;;;;;5093664;28;20420;-69
2021/05/05 04:21:33;;;;;;;62.97;16.73;;;358.80;2329.60;;;;;;5093754;28;20103;-69
2021/05/05 04:23:59;;;;;;;66.18;17.80;;;359.00;2329.60;;;;;;5094218;28;20064;-68
2021/05/05 04:26:25;;;;;;;46.15;14.82;;;359.00;2329.60;;;;;;5093422;28;20056;-68
2021/05/05 04:28:50;;;;;;;40.90;13.18;;;359.10;2329.60;;;;;;5093493;28;20016;-70
2021/05/05 04:31:16;;;;;;;42.65;13.23;;;359.20;2329.60;;;;;;5093924;28;20024;-68
2021/05/05 04:33:45;;;;;;;25.73;10.90;;;359.30;2329.60;;;;;;5093496;28;20047;-71
2021/05/05 04:36:11;;;;;;;29.17;10.60;;;384.00;2329.60;;;;;;5093653;28;20059;-71
2021/05/05 04:38:37;;;;;;;28.40;10.52;;;384.20;2329.60;;;;;;5092868;28;20090;-72
2021/05/05 04:41:03;;;;;;;28.98;10.98;;;384.40;2329.60;;;;;;5093357;28;20435;-70
2021/05/05 04:43:29;;;;;;;28.10;9.27;;;384.70;2329.60;;;;;;5093013;28;20032;-70
2021/05/05 04:45:54;;;;;;;22.15;9.35;;;409.60;2355.20;;;;;;5093685;28;20026;-69
2021/05/05 04:48:20;;;;;;;31.17;17.17;;;409.90;2329.60;;;;;;5093174;28;20363;-69
2021/05/05 04:50:47;;;;;;;22.40;10.05;;;409.90;2329.60;;;;;;5092845;28;20024;-70
2021/05/05 04:53:13;;;;;;;29.88;13.50;;;410.00;2304.00;;;;;;5093215;28;20559;-71
2021/05/05 04:55:38;;;;;;;40.83;21.75;;;410.40;2278.40;;;;;;5092973;28;20032;-70
2021/05/05 04:58:04;;;;;;;46.45;21.30;;;435.30;2150.40;;;;;;5092676;28;20103;-71
2021/05/05 05:00:30;;;;;;;30.55;14.30;;;435.70;2099.20;;;;;;5092950;28;20020;-69
2021/05/05 05:02:56;;;;;;;22.58;14.05;;;436.10;2073.60;;;;;;5092823;28;20031;-71
2021/05/05 05:05:22;;;;;;;14.43;9.38;;;461.10;2048.00;;;;;;5091350;28;20024;-70
2021/05/05 05:07:49;;;;;;;13.73;6.30;;;461.60;1996.80;;;;;;5092979;28;20028;-69
2021/05/05 05:10:15;;;;;;;13.77;6.18;;;486.40;1971.20;;;;;;5092656;28;20016;-70
2021/05/05 05:12:41;;;;;;;15.20;9.23;;;461.60;1945.60;;;;;;5092908;28;20031;-70
2021/05/05 05:15:07;;;;;;;12.85;6.78;;;461.50;1945.60;;;;;;5092671;28;20027;-70
2021/05/05 05:17:33;;;;;;;68.88;46.35;;;460.80;1971.20;;;;;;5092790;28;20059;-70
2021/05/05 05:19:58;;;;;;;38.85;24.40;;;436.10;1945.60;;;;;;5091807;28;20020;-69
2021/05/05 05:22:24;;;;;;;12.38;7.50;;;460.90;1996.80;;;;;;5092557;28;20544;-69
2021/05/05 05:24:50;;;;;;;9.35;5.47;;;436.00;1996.80;;;;;;5092417;28;20046;-69
2021/05/05 05:27:16;;;;;;;9.10;6.05;;;435.90;1971.20;;;;;;5092352;28;20076;-69
2021/05/05 05:29:42;;;;;;;10.30;5.93;;;435.70;1971.20;;;;;;5092213;28;20024;-69
2021/05/05 05:32:08;;;;;;;13.52;6.50;;;435.60;1996.80;;;;;;5092391;28;20027;-71
2021/05/05 05:34:34;;;;;;;10.35;6.63;;;435.50;2022.40;;;;;;5093041;28;20032;-69
2021/05/05 05:37:00;;;;;;;11.73;6.30;;;435.70;2048.00;;;;;;5092390;28;20442;-73
2021/05/05 05:39:26;;;;;;;10.02;6.32;;;436.00;2022.40;;;;;;5091886;28;20027;-70
2021/05/05 05:41:52;;;;;;;12.20;7.35;;;435.80;2048.00;;;;;;5092184;28;20024;-69
2021/05/05 05:44:17;;;;;;;10.90;6.65;;;436.10;2048.00;;;;;;5092214;28;20024;-70
2021/05/05 05:46:43;;;;;;;9.98;5.90;;;461.40;1971.20;;;;;;5092236;28;20428;-70
2021/05/05 05:49:10;;;;;;;10.15;5.75;;;487.20;1868.80;;;;;;5091630;28;20024;-71
2021/05/05 05:51:36;;;;;;;11.25;6.38;;;538.00;1766.40;;;;;;5092319;28;20119;-69
2021/05/05 05:54:06;;;;;;;9.93;5.80;;;589.00;1664.00;;;;;;5091769;28;20553;-69
2021/05/05 05:56:32;;;;;;;9.48;5.68;;;589.50;1510.40;;;;;;5078241;28;20032;-71
2021/05/05 05:58:57;;;;;;;9.27;5.72;;;614.60;1484.80;;;;;;5091420;28;20497;-70
2021/05/05 06:01:23;;;;;;;8.32;5.70;;;589.70;1510.40;;;;;;5091736;28;20034;-71
2021/05/05 06:03:49;;;;;;;9.60;5.88;;;589.60;1484.80;;;;;;5091991;28;20377;-72
2021/05/05 06:06:15;;;;;;;9.02;5.43;;;589.60;1484.80;;;;;;5091570;28;20554;-69
2021/05/05 06:08:40;;;;;;;10.02;4.90;;;589.20;1536.00;;;;;;5091030;28;20031;-71
2021/05/05 06:11:06;;;;;;;9.93;5.15;;;563.90;1536.00;;;;;;5092078;28;20027;-70
2021/05/05 06:13:32;;;;;;;7.53;5.10;;;563.20;1612.80;;;;;;5091717;28;20020;-69
2021/05/05 06:15:58;;;;;;;8.20;5.50;;;538.50;1612.80;;;;;;5091674;28;20032;-70
2021/05/05 06:18:24;;;;;;;7.70;5.00;;;538.30;1612.80;;;;;;5091137;28;20138;-72
2021/05/05 06:20:50;;;;;;;8.23;4.72;;;537.90;1664.00;;;;;;5091297;28;20103;-72
2021/05/05 06:23:16;;;;;;;7.78;5.28;;;537.70;1638.40;;;;;;5091824;28;20118;-70
2021/05/05 06:25:41;;;;;;;7.43;5.18;;;512.90;1612.80;;;;;;5091438;28;20034;-69
2021/05/05 06:28:07;;;;;;;10.63;5.28;;;538.10;1587.20;;;;;;5091585;28;20024;-69
2021/05/05 06:30:33;;;;;;;10.40;5.78;;;538.50;1587.20;;;;;;5091094;28;20027;-72
2021/05/05 06:32:59;;;;;;;8.80;5.60;;;563.20;1587.20;;;;;;5091414;28;20035;-71
2021/05/05 06:35:24;;;;;;;8.90;5.85;;;538.20;1561.60;;;;;;5091344;28;20027;-72
2021/05/05 06:37:50;;;;;;;8.38;5.30;;;538.00;1587.20;;;;;;5091683;28;20027;-70
2021/05/05 06:40:16;;;;;;;10.05;5.60;;;537.80;1612.80;;;;;;5090709;28;20048;-73
2021/05/05 06:42:42;;;;;;;8.32;5.53;;;563.50;1561.60;;;;;;5091511;28;20073;-71
2021/05/05 06:45:09;;;;;;;9.75;6.63;;;564.00;1536.00;;;;;;5090798;28;20024;-71
2021/05/05 06:47:35;;;;;;;9.00;6.07;;;589.70;1433.60;;;;;;5091233;28;20028;-70
2021/05/05 06:50:00;;;;;;;8.50;6.28;;;640.30;1356.80;;;;;;5090857;28;20047;-71
2021/05/05 06:52:26;;;;;;;8.70;6.07;;;691.50;1280.00;;;;;;5091231;28;20024;-70
2021/05/05 06:54:52;;;;;;;9.07;4.95;;;717.50;1177.60;;;;;;5090895;28;20496;-71
2021/05/05 06:57:18;;;;;;;8.80;5.13;;;742.90;1100.80;;;;;;5091153;28;20501;-71
2021/05/05 06:59:44;;;;;;;7.50;4.72;;;742.70;1075.20;;;;;;5090367;28;20017;-67
2021/05/05 07:02:09;;;;;;;8.10;4.63;;;742.80;1075.20;;;;;;5091171;28;20111;-70
2021/05/05 07:04:35;;;;;;;6.00;3.80;;;717.50;1075.20;;;;;;5090460;28;20099;-71
2021/05/05 07:07:01;;;;;;;8.38;4.00;;;717.70;1024.00;;;;;;5091053;28;20020;-71
2021/05/05 07:09:26;;;;;;;8.38;3.88;;;742.60;1049.60;;;;;;5090342;28;20530;-69
2021/05/05 07:11:52;;;;;;;6.80;3.95;;;742.90;1049.60;;;;;;5091321;28;20012;-70
2021/05/05 07:14:18;;;;;;;7.55;4.20;;;743.00;1024.00;;;;;;5090685;28;20063;-69
2021/05/05 07:16:43;;;;;;;6.78;4.50;;;743.00;1024.00;;;;;;5090428;28;20020;-69
2021/05/05 07:19:09;;;;;;;8.02;3.80;;;742.60;1024.00;;;;;;5096409;28;20025;-69
2021/05/05 07:21:35;;;;;;;5.55;3.47;;;691.60;1024.00;;;;;;5103358;28;20039;-70
2021/05/05 07:24:00;;;;;;;6.57;3.55;;;666.30;1075.20;;;;;;5104068;28;20413;-70
2021/05/05 07:26:26;;;;;;;6.72;3.90;;;666.00;1049.60;;;;;;5101533;28;20424;-70
2021/05/05 07:28:52;;;;;;;7.03;4.10;;;640.70;1100.80;;;;;;5105910;28;20526;-72
2021/05/05 07:31:19;;;;;;;9.25;4.13;;;640.00;1126.40;;;;;;5100779;28;20055;-74
2021/05/05 07:33:46;;;;;;;6.57;3.90;;;614.80;1152.00;;;;;;5105161;28;20027;-72
2021/05/05 07:36:17;;;;;;;6.18;3.72;;;614.40;1152.00;;;;;;5101840;28;20024;-69
2021/05/05 07:46:54;;;;;;;5.20;3.50;;;640.30;1126.40;;;;;;5100471;28;20020;-72
2021/05/05 07:49:20;;;;;;;5.63;3.45;;;640.20;1100.80;;;;;;5095299;28;20024;-71
2021/05/05 07:51:46;;;;;;;6.80;3.90;;;615.20;1126.40;;;;;;5100349;28;20073;-70
2021/05/05 07:54:13;;;;;;;7.25;3.78;;;640.50;1100.80;;;;;;5104187;28;20023;-71
2021/05/05 07:56:40;;;;;;;7.40;3.58;;;665.60;1126.40;;;;;;5094453;28;20028;-71
2021/05/05 07:59:06;;;;;;;6.70;3.92;;;640.80;1100.80;;;;;;5093994;28;20031;-70
2021/05/05 08:01:33;;;;;;;6.25;3.75;;;640.90;1100.80;;;;;;5094030;28;20078;-71
2021/05/05 08:04:00;;;;;;;5.75;3.50;;;665.90;1100.80;;;;;;5094171;28;20119;-70
2021/05/05 08:06:26;;;;;;;5.65;3.35;;;666.20;1075.20;;;;;;5094119;28;20081;-71
2021/05/05 08:08:53;;;;;;;8.20;3.20;;;666.00;1100.80;;;;;;5094254;28;20024;-71
2021/05/05 08:11:19;;;;;;;5.13;3.08;;;640.70;1075.20;;;;;;5093843;28;20032;-73
2021/05/05 08:13:47;;;;;;;14.15;8.57;;;640.80;1075.20;;;;;;5093957;28;20024;-72
2021/05/05 08:16:13;;;;;;;8.63;5.28;;;640.80;1075.20;;;;;;5093570;28;20089;-71
2021/05/05 08:18:39;;;;;;;5.85;3.30;;;640.90;1049.60;;;;;;5093605;28;20047;-72
2021/05/05 08:21:07;;;;;;;5.68;2.90;;;640.90;1049.60;;;;;;5093551;28;20099;-71
2021/05/05 08:23:33;;;;;;;4.88;3.15;;;666.20;1049.60;;;;;;5093593;28;20059;-72
2021/05/05 08:25:59;;;;;;;5.40;3.00;;;691.20;1024.00;;;;;;5093749;28;20063;-69
2021/05/05 08:28:25;;;;;;;5.28;2.85;;;691.60;1024.00;;;;;;5093411;28;20051;-71
2021/05/05 08:30:51;;;;;;;5.10;2.90;;;666.50;972.80;;;;;;5092992;28;20016;-69
2021/05/05 08:33:18;;;;;;;5.63;2.72;;;691.70;972.80;;;;;;5093297;28;20313;-68
2021/05/05 08:35:44;;;;;;;4.93;2.67;;;691.80;972.80;;;;;;5093743;28;20028;-70
2021/05/05 08:38:10;;;;;;;4.00;2.70;;;692.10;972.80;;;;;;5093831;28;20111;-69
2021/05/05 08:40:36;;;;;;;10.63;3.40;;;691.90;947.20;;;;;;5093021;28;20046;-70
2021/05/05 08:43:02;;;;;;;4.22;2.70;;;691.70;972.80;;;;;;5093430;28;20075;-68
2021/05/05 08:45:29;;;;;;;3.55;2.50;;;691.60;947.20;;;;;;5093297;28;20024;-68
2021/05/05 08:47:57;;;;;;;4.90;3.00;;;691.50;921.60;;;;;;5093344;28;20506;-69
2021/05/05 08:50:31;;;;;;;5.18;2.70;;;666.20;998.40;;;;;;5092762;28;20084;-70
2021/05/05 08:52:57;;;;;;;5.40;2.90;;;666.40;972.80;;;;;;5093260;28;20043;-71
2021/05/05 08:55:25;;;;;;;5.85;2.90;;;691.30;972.80;;;;;;5093162;28;20367;-72
2021/05/05 08:57:51;;;;;;;4.80;2.80;;;666.00;972.80;;;;;;5093116;28;20012;-69
2021/05/05 09:00:21;;;;;;;5.78;2.90;;;640.90;998.40;;;;;;5092847;28;20012;-70
2021/05/05 09:02:47;;;;;;;5.17;3.00;;;665.90;1024.00;;;;;;5092957;28;20035;-71
2021/05/05 09:05:13;;;;;;;6.57;2.80;;;691.30;998.40;;;;;;5092805;28;20039;-70
2021/05/05 09:07:41;;;;;;;5.32;2.70;;;691.50;998.40;;;;;;5093094;28;20032;-70
2021/05/05 09:10:08;;;;;;;4.47;2.72;;;666.50;972.80;;;;;;5078493;28;20027;-69
2021/05/05 09:12:40;;;;;;;4.53;2.90;;;691.70;972.80;;;;;;5092834;28;20615;-69
2021/05/05 09:15:13;;;;;;;5.63;2.78;;;691.60;972.80;;;;;;5092870;28;20028;-68
2021/05/05 09:17:44;;;;;;;5.50;2.75;;;691.60;921.60;;;;;;5092893;28;20052;-69
2021/05/05 09:20:10;;;;;;;6.07;2.78;;;691.60;921.60;;;;;;5092291;28;20432;-69
2021/05/05 09:22:43;;;;;;;4.28;2.85;;;691.80;921.60;;;;;;5092571;28;20016;-69
2021/05/05 09:25:11;;;;;;;5.93;2.60;;;717.20;947.20;;;;;;5092300;28;20114;-69
2021/05/05 09:27:38;;;;;;;3.97;2.72;;;691.90;896.00;;;;;;5092542;28;20100;-69
2021/05/05 09:30:19;;;;;;;5.03;2.90;;;691.90;870.40;;;;;;5092004;28;20051;-67
2021/05/05 09:32:48;;;;;;;;;;;692.10;896.00;;;;;;5092865;28;20074;-68
2021/05/05 09:35:15;;;;;;;6.95;3.70;;;691.80;896.00;;;;;;5092223;28;20362;-67
2021/05/05 09:37:41;;;;;;;6.28;2.92;;;692.10;896.00;;;;;;5092400;28;20837;-69
2021/05/05 09:40:12;;;;;;;5.15;2.80;;;717.40;896.00;;;;;;5091852;28;20038;-69
2021/05/05 09:42:38;;;;;;;21.30;16.38;;;742.50;896.00;;;;;;5091763;28;20038;-70
2021/05/05 09:45:11;;;;;;;6.07;2.95;;;742.40;921.60;;;;;;5091725;28;20478;-69
2021/05/05 09:47:50;;;;;;;5.15;3.22;;;717.10;896.00;;;;;;5079014;28;20056;-68
2021/05/05 09:50:29;;;;;;;3.72;2.70;;;717.10;921.60;;;;;;5092043;28;20074;-69
2021/05/05 09:53:40;;;;;;;6.85;3.40;;;717.40;921.60;;;;;;5091859;28;20091;-70
2021/05/05 09:56:08;;;;;;;5.78;2.90;;;717.40;947.20;;;;;;5086797;28;20043;-70
2021/05/05 09:58:37;;;;;;;4.15;2.53;;;717.10;921.60;;;;;;5092004;28;20028;-69
2021/05/05 10:01:06;;;;;;;4.97;3.00;;;717.50;896.00;;;;;;5091861;28;20024;-69
2021/05/05 10:03:56;;;;;;;20.15;4.47;;;717.60;896.00;;;;;;5091684;28;20020;-69
2021/05/05 10:06:34;;;;;;;5.72;2.90;;;742.50;947.20;;;;;;5091413;28;20017;-69
2021/05/05 10:09:05;;;;;;;8.15;3.03;;;717.60;921.60;;;;;;5091817;28;20145;-69
2021/05/05 10:11:36;;;;;;;4.75;2.88;;;691.90;921.60;;;;;;5091512;28;20020;-71
2021/05/05 10:14:12;;;;;;;5.00;2.75;;;691.40;947.20;;;;;;5091623;28;20028;-68
2021/05/05 10:16:44;;;;;;;5.15;2.72;;;666.50;972.80;;;;;;5091189;28;20089;-71
2021/05/05 10:19:16;;;;;;;4.30;2.42;;;666.00;972.80;;;;;;5091686;28;20032;-70
2021/05/05 10:22:07;;;;;;;5.47;2.60;;;666.30;947.20;;;;;;5091333;28;20500;-69
2021/05/05 10:24:37;;;;;;;6.22;2.85;;;691.50;947.20;;;;;;5091545;28;20043;-70
2021/05/05 10:27:03;;;;;;;6.18;3.08;;;691.60;972.80;;;;;;5091178;28;20020;-70
2021/05/05 10:29:32;;;;;;;4.95;2.75;;;691.80;972.80;;;;;;5091222;28;20020;-70
2021/05/05 10:32:05;;;;;;;4.70;2.38;;;691.60;972.80;;;;;;5091339;28;20051;-68
2021/05/05 10:34:31;;;;;;;4.38;2.10;;;666.30;947.20;;;;;;5091353;28;20032;-70
2021/05/05 10:37:00;;;;;;;3.90;2.42;;;665.90;947.20;;;;;;5091025;28;20054;-71
2021/05/05 10:39:35;;;;;;;5.50;2.45;;;665.90;972.80;;;;;;5091418;28;20024;-69
2021/05/05 10:42:01;;;;;;;5.32;2.45;;;665.90;998.40;;;;;;5091108;28;20390;-70
2021/05/05 10:44:52;;;;;;;4.38;2.20;;;666.00;972.80;;;;;;5091255;28;20028;-73
2021/05/05 10:47:24;;;;;;;7.03;2.30;;;665.90;972.80;;;;;;5091013;28;20024;-72
2021/05/05 10:50:02;;;;;;;5.15;2.38;;;665.90;972.80;;;;;;5090676;28;20055;-72
2021/05/05 10:52:34;;;;;;;4.50;2.10;;;666.00;972.80;;;;;;5090816;28;20482;-71
2021/05/05 10:55:02;;;;;;;5.60;2.22;;;665.60;998.40;;;;;;5090520;28;20028;-71
2021/05/05 10:57:28;;;;;;;4.85;2.38;;;665.60;998.40;;;;;;5091320;28;20020;-68
2021/05/05 10:59:57;;;;;;;5.22;2.17;;;665.90;998.40;;;;;;5090872;28;20043;-69
2021/05/05 11:02:46;;;;;;;4.47;2.55;;;666.00;998.40;;;;;;5091194;28;20078;-68
2021/05/05 11:05:30;;;;;;;4.25;2.53;;;691.20;998.40;;;;;;5088711;28;20020;-71
2021/05/05 11:07:57;;;;;;;4.28;2.30;;;666.40;998.40;;;;;;5090428;28;20024;-74
2021/05/05 11:10:35;;;;;;;4.95;2.40;;;691.20;998.40;;;;;;5090737;28;20024;-74
2021/05/05 11:13:13;;;;;;;7.50;2.47;;;666.40;998.40;;;;;;5090701;28;20039;-69
2021/05/05 11:15:43;;;;;;;5.05;2.65;;;666.40;998.40;;;;;;5090823;28;20052;-71
2021/05/05 11:18:27;;;;;;;9.63;4.13;;;666.00;972.80;;;;;;5090530;28;20192;-70
2021/05/05 11:20:58;;;;;;;6.68;3.58;;;665.70;1024.00;;;;;;5090871;28;20401;-72
2021/05/05 11:23:36;;;;;;;5.85;2.88;;;640.80;1024.00;;;;;;5090481;28;20028;-72
2021/05/05 11:26:16;;;;;;;4.13;2.33;;;640.70;998.40;;;;;;5090929;28;20068;-69
2021/05/05 11:28:56;;;;;;;;;;;640.50;998.40;;;;;;5072634;28;20043;-70
2021/05/05 11:31:44;;;;;;;5.75;2.50;;;640.60;1024.00;;;;;;5090782;28;19911;-69
2021/05/05 11:34:28;;;;;;;4.88;2.40;;;640.70;998.40;;;;;;5090657;28;20059;-71
2021/05/05 11:37:00;;;;;;;6.25;2.70;;;640.60;1024.00;;;;;;5090366;28;20440;-70
2021/05/05 11:39:33;;;;;;;4.45;2.20;;;640.40;1024.00;;;;;;5090463;28;20016;-70
2021/05/05 11:42:00;;;;;;;4.22;2.40;;;640.40;1024.00;;;;;;5090239;28;20028;-70
2021/05/05 11:44:53;;;;;;;3.53;2.20;;;640.50;998.40;;;;;;5090384;28;20091;-70
2021/05/05 11:47:25;;;;;;;4.10;2.00;;;640.60;1024.00;;;;;;5086194;28;20043;-69
2021/05/05 11:49:53;;;;;;;3.75;1.90;;;640.70;1024.00;;;;;;5090316;28;20020;-73
2021/05/05 11:52:51;;;;;;;3.92;2.00;;;665.60;1049.60;;;;;;5090624;28;20020;-72
2021/05/05 11:55:29;;;;;;;7.88;4.88;;;640.90;1024.00;;;;;;5090497;28;20073;-71
2021/05/05 11:57:57;;;;;;;4.40;2.38;;;666.00;1024.00;;;;;;5090319;28;20070;-70
2021/05/05 12:00:36;;;;;;;3.50;1.88;;;691.30;1024.00;;;;;;5090138;28;20027;-68
2021/05/05 12:03:07;;;;;;;4.00;1.58;;;691.60;1024.00;;;;;;5089831;28;20031;-68
2021/05/05 12:05:55;;;;;;;3.63;1.70;;;691.20;1024.00;;;;;;5090376;28;20031;-69
2021/05/05 12:08:25;;;;;;;4.22;1.60;;;666.30;1049.60;;;;;;5094121;28;20481;-69
2021/05/05 12:10:52;;;;;;;3.58;1.70;;;666.50;1049.60;;;;;;5094100;28;20074;-69
2021/05/05 12:13:22;;;;;;;5.38;1.63;;;666.50;1049.60;;;;;;5093876;28;20070;-70
2021/05/05 12:15:59;;;;;;;3.50;1.40;;;666.30;1075.20;;;;;;5094188;28;20060;-68
2021/05/05 12:18:35;;;;;;;5.97;1.50;;;666.20;1075.20;;;;;;5093421;28;20563;-70
2021/05/05 12:21:11;;;;;;;2.33;1.30;;;666.20;1100.80;;;;;;5093790;28;20040;-68
2021/05/05 12:24:00;;;;;;;2.95;1.60;;;666.40;1075.20;;;;;;5093710;28;20359;-69
2021/05/05 12:26:33;;;;;;;4.78;1.52;;;666.20;1100.80;;;;;;5094053;28;20024;-69
2021/05/05 12:29:01;;;;;;;3.55;1.40;;;665.90;1100.80;;;;;;5075358;28;20020;-71